createdAt,value
2023-01-11T00:01:33.381Z,9.37
2023-01-11T00:04:34.955Z,9.36
2023-01-11T00:07:36.419Z,9.36
2023-01-11T00:10:38.313Z,9.37
2023-01-11T00:13:39.766Z,9.42
2023-01-11T00:16:41.261Z,9.42
2023-01-11T00:19:48.901Z,9.43
2023-01-11T00:23:06.520Z,9.36
2023-01-11T00:26:12.188Z,9.42
2023-01-11T00:29:13.813Z,9.48
2023-01-11T00:32:15.287Z,9.50
2023-01-11T00:35:16.742Z,9.60
2023-01-11T00:38:22.695Z,9.62
2023-01-11T00:41:24.187Z,9.61
2023-01-11T00:44:25.676Z,9.58
2023-01-11T00:47:27.124Z,9.65
2023-01-11T00:50:36.647Z,9.64
2023-01-11T00:53:38.096Z,9.68
2023-01-11T00:56:39.645Z,9.65
2023-01-11T00:59:41.317Z,9.72
2023-01-11T01:02:42.868Z,9.71
2023-01-11T01:05:44.391Z,9.73
2023-01-11T01:08:45.914Z,9.75
2023-01-11T01:11:47.382Z,9.74
2023-01-11T01:14:48.854Z,9.74
2023-01-11T01:17:53.585Z,9.81
2023-01-11T01:20:55.094Z,9.81
2023-01-11T01:23:57.249Z,9.83
2023-01-11T01:26:58.724Z,9.80
2023-01-11T01:30:00.298Z,9.84
2023-01-11T01:33:01.772Z,9.86
2023-01-11T01:36:04.430Z,9.81
2023-01-11T01:39:07.298Z,9.79
2023-01-11T01:42:15.014Z,9.82
2023-01-11T01:45:23.055Z,9.80
2023-01-11T01:48:24.624Z,9.84
2023-01-11T01:51:49.194Z,9.84
2023-01-11T01:54:50.690Z,9.82
2023-01-11T01:57:53.500Z,9.85
2023-01-11T02:00:55.058Z,9.83
2023-01-11T02:03:56.671Z,9.88
2023-01-11T02:07:06.480Z,9.89
2023-01-11T02:10:17.963Z,9.89
2023-01-11T02:13:20.650Z,9.88
2023-01-11T02:16:22.293Z,9.88
2023-01-11T02:19:44.260Z,9.89
2023-01-11T02:22:48.719Z,9.97
2023-01-11T02:25:52.989Z,10.01
2023-01-11T02:29:04.501Z,10.05
2023-01-11T02:32:45.643Z,10.06
2023-01-11T02:36:26.321Z,10.10
2023-01-11T02:40:03.613Z,10.14
2023-01-11T02:43:18.531Z,10.14
2023-01-11T02:46:30.072Z,10.19
2023-01-11T02:49:40.163Z,10.21
2023-01-11T02:52:50.229Z,10.19
2023-01-11T02:55:57.006Z,10.20
2023-01-11T02:58:59.332Z,10.21
2023-01-11T03:02:00.865Z,10.21
2023-01-11T03:05:02.390Z,10.20
2023-01-11T03:08:19.251Z,10.15
2023-01-11T03:11:28.264Z,10.13
2023-01-11T03:14:41.829Z,10.12
2023-01-11T03:18:05.081Z,10.11
2023-01-11T03:21:28.431Z,10.07
2023-01-11T03:24:33.556Z,10.06
2023-01-11T03:28:04.775Z,10.08
2023-01-11T03:31:20.469Z,10.08
2023-01-11T03:34:46.526Z,10.12
2023-01-11T03:37:58.819Z,10.14
2023-01-11T03:41:12.725Z,10.12
2023-01-11T03:44:16.831Z,10.11
2023-01-11T03:47:21.104Z,10.12
2023-01-11T03:50:23.335Z,10.10
2023-01-11T03:53:27.378Z,10.11
2023-01-11T03:57:04.155Z,10.15
2023-01-11T04:00:07.553Z,10.11
2023-01-11T04:03:10.207Z,10.15
2023-01-11T04:06:12.160Z,10.11
2023-01-11T04:09:13.627Z,10.12
2023-01-11T04:12:15.098Z,10.06
2023-01-11T04:15:17.054Z,10.08
2023-01-11T04:18:18.471Z,10.04
2023-01-11T04:21:19.967Z,10.06
2023-01-11T04:24:21.635Z,10.02
2023-01-11T04:27:23.116Z,10.03
2023-01-11T04:30:25.499Z,9.99
2023-01-11T04:33:26.972Z,9.94
2023-01-11T04:36:28.740Z,9.90
2023-01-11T04:39:30.234Z,9.89
2023-01-11T04:42:31.731Z,9.84
2023-01-11T04:45:33.254Z,9.84
2023-01-11T04:48:34.705Z,9.84
2023-01-11T04:51:36.201Z,9.81
2023-01-11T04:54:38.154Z,9.71
2023-01-11T04:57:39.707Z,9.63
2023-01-11T05:00:41.243Z,9.60
2023-01-11T05:03:43.681Z,9.60
2023-01-11T05:06:45.772Z,9.58
2023-01-11T05:09:47.319Z,9.52
2023-01-11T05:12:48.962Z,9.42
2023-01-11T05:15:50.445Z,9.35
2023-01-11T05:18:52.993Z,9.32
2023-01-11T05:21:54.460Z,9.24
2023-01-11T05:24:55.931Z,9.24
2023-01-11T05:27:57.368Z,9.18
2023-01-11T05:30:58.901Z,9.16
2023-01-11T05:34:00.725Z,9.08
2023-01-11T05:37:02.236Z,9.04
2023-01-11T05:40:06.297Z,8.96
2023-01-11T05:43:07.741Z,8.93
2023-01-11T05:46:09.242Z,8.98
2023-01-11T05:49:12.483Z,8.96
2023-01-11T05:52:14.009Z,8.90
2023-01-11T05:55:15.951Z,8.91
2023-01-11T05:58:17.443Z,8.90
2023-01-11T06:01:20.961Z,8.91
2023-01-11T06:04:22.411Z,8.80
2023-01-11T06:07:23.829Z,8.77
2023-01-11T06:10:25.358Z,8.79
2023-01-11T06:13:27.217Z,8.78
2023-01-11T06:16:28.820Z,8.74
2023-01-11T06:19:30.344Z,8.69
2023-01-11T06:22:31.829Z,8.71
2023-01-11T06:25:36.289Z,8.74
2023-01-11T06:28:38.577Z,8.70
2023-01-11T06:31:40.191Z,8.71
2023-01-11T06:34:41.780Z,8.75
2023-01-11T06:37:43.362Z,8.74
2023-01-11T06:40:52.257Z,8.77
2023-01-11T06:43:53.760Z,8.60
2023-01-11T06:46:55.280Z,8.56
2023-01-11T06:49:56.787Z,8.55
2023-01-11T06:53:00.715Z,8.56
2023-01-11T06:56:02.264Z,8.57
2023-01-11T06:59:03.802Z,8.49
2023-01-11T07:02:06.243Z,8.47
2023-01-11T07:05:08.093Z,8.47
2023-01-11T07:08:09.938Z,8.41
2023-01-11T07:11:11.651Z,8.34
2023-01-11T07:14:13.499Z,8.22
2023-01-11T07:17:16.581Z,8.16
2023-01-11T07:20:18.086Z,8.10
2023-01-11T07:23:19.584Z,8.19
2023-01-11T07:26:21.149Z,8.09
2023-01-11T07:29:22.691Z,7.96
2023-01-11T07:32:24.133Z,7.89
2023-01-11T07:35:28.183Z,7.86
2023-01-11T07:38:30.537Z,7.74
2023-01-11T07:41:32.022Z,7.59
2023-01-11T07:44:33.505Z,7.48
2023-01-11T07:47:35.021Z,7.42
2023-01-11T07:50:38.285Z,7.37
2023-01-11T07:53:39.754Z,7.28
2023-01-11T07:56:41.214Z,7.27
2023-01-11T07:59:42.720Z,7.26
2023-01-11T08:02:44.281Z,7.33
2023-01-11T08:05:51.773Z,7.34
2023-01-11T08:08:53.243Z,7.28
2023-01-11T08:11:54.723Z,7.22
2023-01-11T08:14:56.180Z,7.19
2023-01-11T08:17:58.013Z,7.09
2023-01-11T08:20:59.591Z,6.98
2023-01-11T08:24:01.125Z,7.08
2023-01-11T08:27:03.796Z,7.06
2023-01-11T08:30:05.966Z,7.04
2023-01-11T08:33:07.492Z,7.11
2023-01-11T08:36:10.979Z,7.15
2023-01-11T08:39:12.475Z,7.12
2023-01-11T08:42:13.986Z,7.09
2023-01-11T08:45:15.542Z,6.94
2023-01-11T08:48:17.218Z,6.99
2023-01-11T08:51:18.827Z,6.89
2023-01-11T08:54:20.365Z,6.94
2023-01-11T08:57:21.857Z,6.97
2023-01-11T09:00:23.476Z,7.06
2023-01-11T09:03:24.963Z,7.13
2023-01-11T09:06:26.813Z,7.12
2023-01-11T09:09:28.459Z,7.14
2023-01-11T09:12:30.493Z,7.32
2023-01-11T09:15:32.055Z,7.40
2023-01-11T09:18:33.543Z,7.45
2023-01-11T09:21:35.071Z,7.46
2023-01-11T09:24:36.733Z,7.44
2023-01-11T09:27:38.318Z,7.53
2023-01-11T09:30:39.770Z,7.57
2023-01-11T09:33:41.313Z,7.58
2023-01-11T09:36:42.830Z,7.61
2023-01-11T09:39:44.274Z,7.66
2023-01-11T09:42:49.727Z,7.64
2023-01-11T09:45:51.783Z,7.68
2023-01-11T09:48:57.264Z,7.76
2023-01-11T09:52:14.069Z,7.82
2023-01-11T09:55:18.499Z,7.84
2023-01-11T09:58:50.655Z,7.93
2023-01-11T10:02:30.195Z,8.03
2023-01-11T10:05:34.755Z,8.08
2023-01-11T10:18:27.479Z,8.16
2023-01-11T10:20:43.255Z,8.22
2023-01-11T10:23:58.299Z,8.29
2023-01-11T10:27:01.361Z,8.30
2023-01-11T10:30:14.258Z,8.35
2023-01-11T10:33:21.749Z,8.42
2023-01-11T10:36:44.192Z,8.52
2023-01-11T10:40:19.490Z,8.63
2023-01-11T10:43:21.984Z,8.63
2023-01-11T10:46:26.443Z,8.60
2023-01-11T10:50:14.216Z,8.66
2023-01-11T10:53:25.219Z,8.73
2023-01-11T10:57:03.052Z,8.82
2023-01-11T11:00:13.749Z,9.01
2023-01-11T11:03:24.440Z,9.06
2023-01-11T11:06:40.507Z,9.04
2023-01-11T11:09:51.017Z,9.10
2023-01-11T11:13:08.168Z,9.33
2023-01-11T11:16:21.898Z,9.14
2023-01-11T11:19:26.365Z,9.06
2023-01-11T11:22:27.775Z,9.14
2023-01-11T11:25:31.383Z,9.25
2023-01-11T11:28:33.430Z,9.29
2023-01-11T11:31:38.531Z,9.28
2023-01-11T11:34:47.166Z,9.18
2023-01-11T11:37:48.682Z,9.18
2023-01-11T11:41:17.344Z,9.19
2023-01-11T11:44:27.001Z,9.28
2023-01-11T11:47:28.435Z,9.33
2023-01-11T11:50:44.740Z,9.43
2023-01-11T11:53:52.625Z,9.64
2023-01-11T11:56:56.263Z,9.61
2023-01-11T12:00:30.783Z,9.44
2023-01-11T12:03:34.004Z,9.25
2023-01-11T12:06:35.470Z,9.11
2023-01-11T12:09:41.340Z,9.02
2023-01-11T12:12:55.660Z,8.99
2023-01-11T12:15:58.440Z,9.05
2023-01-11T12:18:59.999Z,8.98
2023-01-11T12:22:28.484Z,9.13
2023-01-11T12:25:30.124Z,9.25
2023-01-11T12:28:59.284Z,9.32
2023-01-11T12:32:19.637Z,9.27
2023-01-11T12:35:33.597Z,9.12
2023-01-11T12:38:39.199Z,8.98
2023-01-11T12:41:52.590Z,9.07
2023-01-11T12:45:36.171Z,9.18
2023-01-11T12:48:52.598Z,9.30
2023-01-11T12:52:15.212Z,9.35
2023-01-11T12:55:38.670Z,9.18
2023-01-11T12:58:43.012Z,9.19
2023-01-11T13:02:03.238Z,9.25
2023-01-11T13:05:31.643Z,9.30
2023-01-11T13:08:54.277Z,9.29
2023-01-11T13:12:10.281Z,9.42
2023-01-11T13:15:26.992Z,9.23
2023-01-11T13:18:50.180Z,9.14
2023-01-11T13:21:55.680Z,9.42
2023-01-11T13:24:59.090Z,9.27
2023-01-11T13:28:03.765Z,9.23
2023-01-11T13:31:11.494Z,9.28
2023-01-11T13:34:23.645Z,9.44
2023-01-11T13:37:41.176Z,9.10
2023-01-11T13:40:48.193Z,9.23
2023-01-11T13:44:14.515Z,9.38
2023-01-11T13:47:23.512Z,9.29
2023-01-11T13:50:37.191Z,9.28
2023-01-11T13:54:19.110Z,9.14
2023-01-11T13:58:02.717Z,9.09
2023-01-11T14:01:10.431Z,9.03
2023-01-11T14:04:25.432Z,9.06
2023-01-11T14:07:44.618Z,9.05
2023-01-11T14:10:58.063Z,9.04
2023-01-11T14:14:24.651Z,8.96
2023-01-11T14:17:57.169Z,8.91
2023-01-11T14:21:13.897Z,8.83
2023-01-11T14:24:18.117Z,8.69
2023-01-11T14:27:47.503Z,8.68
2023-01-11T14:30:58.154Z,8.59
2023-01-11T14:34:24.267Z,8.55
2023-01-11T14:37:44.380Z,8.51
2023-01-11T14:41:07.152Z,8.50
2023-01-11T14:44:11.606Z,8.40
2023-01-11T14:47:35.777Z,8.42
2023-01-11T14:50:58.839Z,8.40
2023-01-11T14:54:11.095Z,8.44
2023-01-11T14:57:43.248Z,8.45
2023-01-11T15:00:45.470Z,8.47
2023-01-11T15:03:48.585Z,8.43
2023-01-11T15:06:54.769Z,8.42
2023-01-11T15:09:59.692Z,8.44
2023-01-11T15:13:06.251Z,8.39
2023-01-11T15:16:19.624Z,8.41
2023-01-11T15:19:25.916Z,8.41
2023-01-11T15:22:33.366Z,8.46
2023-01-11T15:25:35.769Z,8.43
2023-01-11T15:28:49.335Z,8.35
2023-01-11T15:31:53.655Z,8.24
2023-01-11T15:35:23.934Z,8.15
2023-01-11T15:38:37.363Z,8.10
2023-01-11T15:42:09.295Z,8.13
2023-01-11T15:45:37.130Z,8.12
2023-01-11T15:48:59.448Z,8.10
2023-01-11T15:52:23.725Z,8.12
2023-01-11T15:55:46.831Z,8.11
2023-01-11T15:59:03.566Z,8.04
2023-01-11T16:02:13.964Z,8.02
2023-01-11T16:05:21.664Z,8.06
2023-01-11T16:08:32.291Z,8.04
2023-01-11T16:11:59.521Z,7.88
2023-01-11T16:15:16.439Z,7.88
2023-01-11T16:18:27.824Z,8.08
2023-01-11T16:21:36.013Z,8.13
2023-01-11T16:24:42.971Z,8.08
2023-01-11T16:27:55.093Z,8.19
2023-01-11T16:31:05.983Z,8.32
2023-01-11T16:34:07.511Z,8.44
2023-01-11T16:37:20.688Z,8.45
2023-01-11T16:40:39.739Z,8.49
2023-01-11T16:43:49.990Z,8.53
2023-01-11T16:47:03.581Z,8.45
2023-01-11T16:50:24.572Z,8.48
2023-01-11T16:53:27.988Z,8.41
2023-01-11T16:56:29.521Z,8.49
2023-01-11T16:59:31.232Z,8.52
2023-01-11T17:02:35.547Z,8.55
2023-01-11T17:05:37.014Z,8.52
2023-01-11T17:08:41.050Z,8.64
2023-01-11T17:11:49.058Z,8.61
2023-01-11T17:15:07.175Z,8.62
2023-01-11T17:18:10.604Z,8.51
2023-01-11T17:21:27.480Z,8.67
2023-01-11T17:24:30.512Z,8.70
2023-01-11T17:27:40.865Z,8.67
2023-01-11T17:30:45.900Z,8.63
2023-01-11T17:33:47.593Z,8.58
2023-01-11T17:36:50.117Z,8.60
2023-01-11T17:39:52.251Z,8.57
2023-01-11T17:43:00.037Z,8.56
2023-01-11T17:46:02.811Z,8.50
2023-01-11T17:49:04.374Z,8.43
2023-01-11T17:52:24.001Z,8.34
2023-01-11T17:55:26.793Z,7.99
2023-01-11T17:58:29.306Z,7.71
2023-01-11T18:01:30.840Z,7.57
2023-01-11T18:04:32.369Z,7.54
2023-01-11T18:07:41.529Z,7.65
2023-01-11T18:10:50.770Z,7.58
2023-01-11T18:13:54.523Z,7.58
2023-01-11T18:16:58.836Z,7.54
2023-01-11T18:20:02.203Z,7.52
2023-01-11T18:23:15.704Z,7.46
2023-01-11T18:26:27.085Z,7.37
2023-01-11T18:29:37.815Z,7.43
2023-01-11T18:32:43.193Z,7.39
2023-01-11T18:35:47.272Z,7.31
2023-01-11T18:38:49.258Z,7.30
2023-01-11T18:41:50.902Z,7.27
2023-01-11T18:44:52.547Z,7.33
2023-01-11T18:47:54.055Z,7.34
2023-01-11T18:50:55.534Z,7.24
2023-01-11T18:53:57.062Z,7.23
2023-01-11T18:56:58.515Z,7.25
2023-01-11T18:59:59.981Z,7.18
2023-01-11T19:03:03.406Z,7.22
2023-01-11T19:06:06.123Z,7.14
2023-01-11T19:09:07.646Z,7.12
2023-01-11T19:12:09.088Z,7.03
2023-01-11T19:15:12.130Z,7.03
2023-01-11T19:18:13.770Z,7.06
2023-01-11T19:21:15.348Z,7.13
2023-01-11T19:24:16.845Z,7.12
2023-01-11T19:27:18.341Z,7.16
2023-01-11T19:30:19.957Z,7.18
2023-01-11T19:33:21.878Z,7.09
2023-01-11T19:36:23.421Z,7.09
2023-01-11T19:39:24.963Z,7.06
2023-01-11T19:42:26.446Z,7.05
2023-01-11T19:45:27.883Z,7.09
2023-01-11T19:48:31.386Z,7.01
2023-01-11T19:51:32.875Z,6.99
2023-01-11T19:54:34.341Z,7.09
2023-01-11T19:57:35.921Z,7.07
2023-01-11T20:00:37.471Z,7.09
2023-01-11T20:03:39.281Z,7.06
2023-01-11T20:06:41.452Z,7.10
2023-01-11T20:09:43.394Z,7.04
2023-01-11T20:12:44.819Z,7.10
2023-01-11T20:15:46.320Z,7.15
2023-01-11T20:18:56.205Z,7.07
2023-01-11T20:21:57.803Z,7.13
2023-01-11T20:24:59.344Z,7.13
2023-01-11T20:28:00.807Z,7.18
2023-01-11T20:31:06.457Z,7.22
2023-01-11T20:34:11.403Z,7.25
2023-01-11T20:37:12.932Z,7.25
2023-01-11T20:40:14.609Z,7.23
2023-01-11T20:43:16.061Z,7.22
2023-01-11T20:46:17.621Z,7.24
2023-01-11T20:49:21.995Z,7.21
2023-01-11T20:52:23.484Z,7.19
2023-01-11T20:55:25.144Z,7.24
2023-01-11T20:58:26.650Z,7.26
2023-01-11T21:01:28.623Z,7.31
2023-01-11T21:04:30.208Z,7.34
2023-01-11T21:07:32.520Z,7.37
2023-01-11T21:10:33.985Z,7.47
2023-01-11T21:13:35.841Z,7.44
2023-01-11T21:16:40.735Z,7.49
2023-01-11T21:19:42.206Z,7.50
2023-01-11T21:22:43.702Z,7.55
2023-01-11T21:25:45.201Z,7.54
2023-01-11T21:28:51.283Z,7.62
2023-01-11T21:31:52.715Z,7.60
2023-01-11T21:34:54.155Z,7.67
2023-01-11T21:37:55.614Z,7.73
2023-01-11T21:41:04.215Z,7.77
2023-01-11T21:44:06.571Z,7.73
2023-01-11T21:47:08.015Z,7.72
2023-01-11T21:50:10.144Z,7.73
2023-01-11T21:53:11.622Z,7.70
2023-01-11T21:56:13.123Z,7.76
2023-01-11T21:59:15.238Z,7.75
2023-01-11T22:02:16.736Z,7.76
2023-01-11T22:05:18.237Z,7.77
2023-01-11T22:08:19.799Z,7.76
2023-01-11T22:11:21.290Z,7.69
2023-01-11T22:14:22.793Z,7.66
2023-01-11T22:17:24.282Z,7.61
2023-01-11T22:20:25.757Z,7.66
2023-01-11T22:23:27.233Z,7.67
2023-01-11T22:26:28.854Z,7.64
2023-01-11T22:29:30.297Z,7.60
2023-01-11T22:32:31.802Z,7.66
2023-01-11T22:35:33.592Z,7.67
2023-01-11T22:38:35.042Z,7.56
2023-01-11T22:41:36.667Z,7.62
2023-01-11T22:44:38.150Z,7.66
2023-01-11T22:47:39.688Z,7.72
2023-01-11T22:50:41.186Z,7.69
2023-01-11T22:53:45.277Z,7.77
2023-01-11T22:56:47.078Z,7.81
2023-01-11T22:59:48.535Z,7.77
2023-01-11T23:02:50.055Z,7.81
2023-01-11T23:05:51.545Z,7.84
2023-01-11T23:08:53.869Z,7.87
2023-01-11T23:11:55.340Z,7.86
2023-01-11T23:14:56.798Z,7.90
2023-01-11T23:17:58.229Z,7.92
2023-01-11T23:21:04.142Z,7.91
2023-01-11T23:24:05.941Z,7.91
2023-01-11T23:27:07.459Z,7.93
2023-01-11T23:30:09.660Z,7.97
2023-01-11T23:33:11.109Z,7.96
2023-01-11T23:36:13.602Z,7.96
2023-01-11T23:39:16.512Z,7.95
2023-01-11T23:42:17.928Z,7.90
2023-01-11T23:45:19.406Z,7.95
2023-01-11T23:48:20.887Z,7.98
2023-01-11T23:51:22.369Z,8.02
2023-01-11T23:54:28.167Z,8.00
2023-01-11T23:57:29.660Z,8.00
